createdAt,value
2019-01-27T00:00:55.968Z,3.80
2019-01-27T00:01:55.971Z,3.30
2019-01-27T00:02:55.951Z,3.70
2019-01-27T00:03:55.963Z,3.60
2019-01-27T00:04:55.943Z,3.80
2019-01-27T00:05:55.941Z,3.80
2019-01-27T00:06:55.906Z,3.60
2019-01-27T00:07:55.897Z,3.60
2019-01-27T00:08:55.888Z,3.50
2019-01-27T00:09:55.895Z,3.90
2019-01-27T00:10:55.867Z,3.70
2019-01-27T00:11:55.859Z,4.10
2019-01-27T00:12:55.838Z,4.10
2019-01-27T00:13:55.862Z,4.40
2019-01-27T00:14:55.841Z,3.70
2019-01-27T00:15:55.816Z,4.00
2019-01-27T00:16:55.803Z,4.20
2019-01-27T00:17:55.803Z,4.30
2019-01-27T00:18:55.776Z,4.00
2019-01-27T00:19:55.792Z,3.90
2019-01-27T00:20:55.759Z,4.20
2019-01-27T00:21:55.749Z,4.00
2019-01-27T00:22:55.743Z,4.10
2019-01-27T00:23:55.723Z,4.00
2019-01-27T00:24:55.741Z,3.90
2019-01-27T00:25:55.717Z,4.10
2019-01-27T00:26:55.691Z,4.50
2019-01-27T00:27:55.684Z,3.90
2019-01-27T00:28:55.678Z,3.80
2019-01-27T00:29:55.694Z,4.00
2019-01-27T00:30:56.584Z,4.00
2019-01-27T00:31:55.650Z,3.90
2019-01-27T00:32:55.635Z,3.50
2019-01-27T00:33:55.623Z,3.90
2019-01-27T00:34:55.615Z,3.50
2019-01-27T00:35:55.615Z,3.70
2019-01-27T00:36:55.588Z,3.80
2019-01-27T00:37:55.594Z,3.70
2019-01-27T00:38:55.580Z,3.80
2019-01-27T00:39:55.566Z,3.80
2019-01-27T00:40:55.548Z,3.50
2019-01-27T00:41:55.563Z,3.60
2019-01-27T00:42:55.525Z,3.60
2019-01-27T00:43:55.518Z,3.60
2019-01-27T00:44:55.498Z,3.00
2019-01-27T00:45:55.494Z,3.70
2019-01-27T00:46:55.479Z,3.30
2019-01-27T00:47:55.490Z,3.00
2019-01-27T00:48:55.462Z,3.30
2019-01-27T00:49:55.468Z,3.40
2019-01-27T00:50:55.438Z,3.20
2019-01-27T00:51:55.427Z,3.00
2019-01-27T00:52:55.419Z,3.00
2019-01-27T00:53:55.410Z,2.60
2019-01-27T00:54:55.415Z,2.70
2019-01-27T00:55:55.409Z,2.50
2019-01-27T00:56:55.418Z,2.60
2019-01-27T00:57:55.359Z,2.50
2019-01-27T00:58:55.350Z,2.20
2019-01-27T00:59:55.356Z,2.40
2019-01-27T01:00:55.346Z,2.50
2019-01-27T01:01:55.344Z,2.20
2019-01-27T01:02:55.310Z,2.40
2019-01-27T01:03:55.302Z,2.10
2019-01-27T01:04:55.285Z,2.20
2019-01-27T01:05:55.281Z,2.20
2019-01-27T01:06:55.286Z,2.10
2019-01-27T01:07:55.260Z,2.00
2019-01-27T01:08:55.248Z,2.30
2019-01-27T01:09:55.283Z,2.20
2019-01-27T01:10:55.241Z,2.40
2019-01-27T01:11:55.218Z,2.20
2019-01-27T01:12:55.237Z,2.20
2019-01-27T01:13:55.206Z,2.40
2019-01-27T01:14:55.195Z,2.20
2019-01-27T01:15:55.190Z,2.10
2019-01-27T01:16:55.159Z,2.50
2019-01-27T01:17:55.148Z,2.30
2019-01-27T01:18:55.136Z,2.40
2019-01-27T01:19:55.146Z,2.40
2019-01-27T01:20:55.147Z,2.30
2019-01-27T01:21:55.102Z,2.20
2019-01-27T01:22:55.098Z,2.30
2019-01-27T01:23:55.087Z,2.40
2019-01-27T01:24:55.078Z,2.30
2019-01-27T01:25:55.067Z,2.30
2019-01-27T01:26:55.090Z,2.50
2019-01-27T01:27:55.043Z,2.80
2019-01-27T01:28:55.030Z,2.50
2019-01-27T01:29:55.017Z,2.50
2019-01-27T01:30:55.012Z,2.70
2019-01-27T01:31:55.078Z,2.60
2019-01-27T01:32:55.027Z,2.70
2019-01-27T01:33:54.988Z,2.70
2019-01-27T01:34:54.971Z,2.60
2019-01-27T01:35:54.957Z,2.50
2019-01-27T01:36:54.944Z,2.70
2019-01-27T01:37:54.939Z,2.20
2019-01-27T01:38:54.951Z,2.50
2019-01-27T01:39:54.912Z,2.40
2019-01-27T01:40:54.903Z,2.30
2019-01-27T01:41:54.893Z,2.50
2019-01-27T01:42:54.882Z,2.40
2019-01-27T01:43:54.874Z,2.20
2019-01-27T01:44:54.891Z,2.50
2019-01-27T01:45:54.863Z,2.10
2019-01-27T01:46:54.841Z,2.40
2019-01-27T01:47:54.834Z,2.60
2019-01-27T01:48:55.100Z,2.30
2019-01-27T01:49:54.807Z,2.20
2019-01-27T01:50:55.862Z,2.50
2019-01-27T01:51:54.796Z,2.40
2019-01-27T01:52:54.781Z,2.20
2019-01-27T01:53:54.765Z,2.30
2019-01-27T01:54:54.833Z,2.60
2019-01-27T01:55:54.747Z,2.50
2019-01-27T01:56:54.813Z,2.30
2019-01-27T01:57:54.726Z,2.60
2019-01-27T01:58:54.714Z,2.10
2019-01-27T01:59:54.702Z,1.80
2019-01-27T02:00:54.688Z,2.20
2019-01-27T02:01:54.726Z,1.90
2019-01-27T02:02:54.692Z,2.20
2019-01-27T02:03:54.859Z,2.20
2019-01-27T02:04:54.782Z,2.30
2019-01-27T02:05:54.636Z,2.10
2019-01-27T02:06:54.652Z,1.80
2019-01-27T02:07:54.639Z,2.00
2019-01-27T02:08:54.610Z,1.70
2019-01-27T02:09:54.610Z,1.70
2019-01-27T02:10:54.580Z,1.50
2019-01-27T02:11:54.577Z,1.90
2019-01-27T02:12:54.598Z,1.90
2019-01-27T02:13:54.555Z,1.90
2019-01-27T02:14:54.547Z,1.90
2019-01-27T02:15:54.527Z,1.80
2019-01-27T02:16:54.519Z,1.60
2019-01-27T02:17:54.539Z,1.90
2019-01-27T02:18:55.338Z,2.00
2019-01-27T02:19:54.577Z,1.90
2019-01-27T02:20:54.477Z,1.80
2019-01-27T02:21:54.470Z,1.70
2019-01-27T02:22:54.462Z,1.80
2019-01-27T02:23:54.867Z,1.40
2019-01-27T02:24:54.432Z,1.90
2019-01-27T02:25:54.423Z,1.50
2019-01-27T02:26:54.419Z,1.60
2019-01-27T02:27:54.399Z,1.70
2019-01-27T02:28:54.431Z,2.00
2019-01-27T02:29:54.377Z,2.10
2019-01-27T02:30:54.366Z,1.50
2019-01-27T02:31:54.365Z,1.80
2019-01-27T02:32:54.367Z,2.00
2019-01-27T02:33:54.341Z,2.00
2019-01-27T02:34:54.329Z,2.10
2019-01-27T02:35:54.318Z,1.80
2019-01-27T02:36:54.302Z,1.90
2019-01-27T02:37:54.317Z,2.00
2019-01-27T02:38:54.297Z,1.90
2019-01-27T02:39:54.277Z,1.70
2019-01-27T02:40:54.292Z,2.00
2019-01-27T02:41:54.247Z,2.00
2019-01-27T02:42:54.236Z,2.10
2019-01-27T02:43:54.231Z,1.70
2019-01-27T02:44:54.239Z,1.90
2019-01-27T02:45:54.286Z,1.80
2019-01-27T02:46:54.277Z,1.80
2019-01-27T02:47:54.180Z,2.00
2019-01-27T02:48:54.172Z,1.90
2019-01-27T02:49:54.338Z,1.70
2019-01-27T02:50:54.152Z,1.90
2019-01-27T02:51:54.143Z,1.80
2019-01-27T02:52:54.169Z,1.70
2019-01-27T02:53:54.120Z,1.70
2019-01-27T02:54:54.114Z,1.60
2019-01-27T02:55:54.099Z,1.90
2019-01-27T02:56:54.084Z,1.80
2019-01-27T02:57:54.095Z,1.70
2019-01-27T02:58:54.094Z,1.70
2019-01-27T02:59:54.071Z,1.70
2019-01-27T03:00:54.045Z,1.70
2019-01-27T03:01:54.803Z,1.60
2019-01-27T03:02:54.027Z,1.80
2019-01-27T03:03:54.006Z,1.60
2019-01-27T03:04:54.016Z,1.80
2019-01-27T03:05:54.006Z,1.80
2019-01-27T03:06:53.975Z,1.90
2019-01-27T03:07:53.972Z,2.10
2019-01-27T03:08:53.991Z,2.20
2019-01-27T03:09:53.947Z,2.40
2019-01-27T03:10:53.947Z,2.30
2019-01-27T03:11:53.923Z,2.20
2019-01-27T03:12:53.932Z,2.50
2019-01-27T03:13:53.937Z,2.50
2019-01-27T03:14:53.897Z,2.30
2019-01-27T03:15:53.879Z,2.60
2019-01-27T03:16:53.871Z,2.40
2019-01-27T03:17:53.870Z,2.40
2019-01-27T03:18:53.846Z,2.30
2019-01-27T03:19:53.874Z,2.50
2019-01-27T03:20:53.838Z,2.30
2019-01-27T03:21:53.820Z,2.20
2019-01-27T03:22:53.811Z,2.40
2019-01-27T03:23:53.811Z,2.40
2019-01-27T03:24:53.783Z,2.20
2019-01-27T03:25:53.778Z,2.30
2019-01-27T03:26:53.760Z,2.40
2019-01-27T03:27:53.757Z,2.30
2019-01-27T03:28:53.749Z,2.20
2019-01-27T03:29:53.760Z,2.30
2019-01-27T03:30:53.719Z,2.40
2019-01-27T03:31:53.748Z,2.00
2019-01-27T03:32:53.713Z,2.20
2019-01-27T03:33:53.690Z,2.00
2019-01-27T03:34:53.698Z,2.10
2019-01-27T03:35:53.668Z,2.00
2019-01-27T03:36:53.655Z,2.00
2019-01-27T03:37:53.644Z,1.90
2019-01-27T03:38:53.631Z,2.10
2019-01-27T03:39:53.681Z,2.10
2019-01-27T03:40:53.619Z,2.20
2019-01-27T03:41:53.665Z,2.00
2019-01-27T03:42:53.597Z,2.00
2019-01-27T03:43:53.579Z,2.00
2019-01-27T03:44:53.604Z,1.80
2019-01-27T03:45:53.872Z,1.70
2019-01-27T03:46:53.571Z,1.60
2019-01-27T03:47:53.537Z,1.50
2019-01-27T03:48:53.539Z,1.60
2019-01-27T03:49:53.539Z,1.60
2019-01-27T03:50:53.504Z,1.70
2019-01-27T03:51:53.524Z,1.80
2019-01-27T03:52:53.487Z,1.60
2019-01-27T03:53:53.473Z,1.80
2019-01-27T03:54:53.480Z,1.60
2019-01-27T03:55:53.457Z,1.70
2019-01-27T03:56:53.448Z,1.70
2019-01-27T03:57:53.433Z,1.60
2019-01-27T03:58:53.429Z,1.60
2019-01-27T03:59:53.429Z,1.60
2019-01-27T04:00:53.946Z,1.70
2019-01-27T04:01:53.397Z,1.70
2019-01-27T04:02:53.425Z,1.50
2019-01-27T04:03:53.413Z,1.60
2019-01-27T04:04:53.375Z,1.80
2019-01-27T04:05:53.425Z,1.90
2019-01-27T04:06:53.333Z,1.80
2019-01-27T04:07:53.331Z,1.80
2019-01-27T04:08:53.318Z,2.00
2019-01-27T04:09:53.330Z,1.80
2019-01-27T04:10:53.297Z,1.60
2019-01-27T04:11:53.299Z,1.70
2019-01-27T04:12:53.287Z,1.60
2019-01-27T04:13:53.264Z,1.70
2019-01-27T04:14:53.251Z,1.70
2019-01-27T04:15:53.267Z,1.70
2019-01-27T04:16:53.237Z,1.40
2019-01-27T04:17:53.267Z,1.50
2019-01-27T04:18:53.209Z,1.70
2019-01-27T04:19:53.205Z,1.40
2019-01-27T04:20:53.207Z,1.60
2019-01-27T04:21:53.183Z,1.10
2019-01-27T04:22:53.170Z,1.50
2019-01-27T04:23:53.151Z,1.40
2019-01-27T04:24:53.184Z,1.40
2019-01-27T04:25:53.151Z,1.40
2019-01-27T04:26:53.119Z,1.40
2019-01-27T04:27:53.118Z,1.30
2019-01-27T04:28:53.119Z,1.50
2019-01-27T04:29:53.093Z,1.30
2019-01-27T04:30:53.104Z,1.30
2019-01-27T04:31:53.068Z,1.40
2019-01-27T04:32:53.061Z,1.40
2019-01-27T04:33:53.049Z,1.60
2019-01-27T04:34:53.043Z,1.50
2019-01-27T04:35:53.056Z,1.50
2019-01-27T04:36:53.027Z,1.40
2019-01-27T04:37:53.024Z,1.50
2019-01-27T04:38:52.995Z,1.20
2019-01-27T04:39:52.991Z,1.30
2019-01-27T04:40:52.979Z,1.10
2019-01-27T04:41:52.983Z,1.20
2019-01-27T04:42:52.979Z,1.10
2019-01-27T04:43:52.940Z,1.10
2019-01-27T04:44:52.956Z,1.10
2019-01-27T04:45:52.949Z,1.10
2019-01-27T04:46:52.913Z,1.20
2019-01-27T04:47:52.905Z,0.90
2019-01-27T04:48:52.891Z,1.00
2019-01-27T04:49:52.878Z,1.00
2019-01-27T04:50:52.886Z,1.10
2019-01-27T04:51:52.890Z,0.90
2019-01-27T04:52:52.853Z,1.00
2019-01-27T04:53:52.839Z,1.00
2019-01-27T04:54:52.831Z,0.90
2019-01-27T04:55:52.814Z,1.00
2019-01-27T04:56:52.805Z,1.00
2019-01-27T04:57:52.823Z,0.90
2019-01-27T04:58:52.815Z,1.00
2019-01-27T04:59:52.775Z,1.00
2019-01-27T05:00:52.767Z,1.10
2019-01-27T05:01:52.776Z,1.00
2019-01-27T05:02:52.760Z,1.30
2019-01-27T05:03:52.726Z,0.90
2019-01-27T05:04:52.719Z,1.00
2019-01-27T05:05:52.711Z,1.00
2019-01-27T05:06:52.719Z,1.10
2019-01-27T05:07:52.704Z,1.00
2019-01-27T05:08:52.675Z,1.00
2019-01-27T05:09:52.665Z,1.00
2019-01-27T05:10:52.656Z,0.90
2019-01-27T05:11:52.663Z,1.00
2019-01-27T05:12:52.635Z,1.00
2019-01-27T05:13:52.629Z,0.90
2019-01-27T05:14:52.617Z,1.00
2019-01-27T05:15:52.598Z,1.00
2019-01-27T05:16:52.617Z,0.90
2019-01-27T05:17:52.603Z,0.90
2019-01-27T05:18:52.575Z,1.00
2019-01-27T05:19:52.572Z,0.80
2019-01-27T05:20:52.549Z,0.80
2019-01-27T05:21:52.562Z,0.90
2019-01-27T05:22:52.544Z,0.80
2019-01-27T05:23:52.521Z,0.80
2019-01-27T05:24:52.507Z,0.90
2019-01-27T05:25:52.502Z,0.80
2019-01-27T05:26:52.507Z,0.90
2019-01-27T05:27:52.496Z,0.80
2019-01-27T05:28:52.474Z,0.90
2019-01-27T05:29:52.451Z,1.10
2019-01-27T05:30:52.439Z,0.90
2019-01-27T05:31:52.460Z,0.80
2019-01-27T05:32:52.430Z,1.00
2019-01-27T05:33:52.413Z,0.90
2019-01-27T05:34:52.406Z,0.90
2019-01-27T05:35:52.395Z,1.00
2019-01-27T05:36:52.379Z,1.00
2019-01-27T05:37:52.404Z,1.10
2019-01-27T05:38:52.361Z,1.10
2019-01-27T05:39:52.343Z,1.10
2019-01-27T05:40:52.648Z,0.90
2019-01-27T05:41:52.399Z,1.00
2019-01-27T05:42:52.400Z,1.00
2019-01-27T05:43:52.309Z,1.10
2019-01-27T05:44:52.294Z,1.00
2019-01-27T05:45:52.284Z,1.00
2019-01-27T05:46:52.275Z,1.00
2019-01-27T05:47:52.287Z,1.30
2019-01-27T05:48:52.269Z,0.90
2019-01-27T05:49:52.246Z,1.00
2019-01-27T05:50:52.226Z,0.90
2019-01-27T05:51:52.240Z,0.80
2019-01-27T05:52:52.228Z,1.00
2019-01-27T05:53:52.198Z,1.10
2019-01-27T05:54:52.183Z,1.10
2019-01-27T05:55:52.183Z,1.10
2019-01-27T05:56:56.649Z,1.00
2019-01-27T05:57:52.184Z,1.10
2019-01-27T05:58:52.171Z,1.00
2019-01-27T05:59:52.137Z,1.10
2019-01-27T06:00:52.127Z,1.20
2019-01-27T06:01:52.116Z,1.10
2019-01-27T06:02:52.101Z,1.10
2019-01-27T06:03:52.116Z,1.10
2019-01-27T06:04:52.082Z,0.90
2019-01-27T06:05:52.086Z,0.90
2019-01-27T06:06:52.063Z,1.10
2019-01-27T06:07:52.064Z,1.10
2019-01-27T06:08:52.037Z,0.90
2019-01-27T06:09:52.029Z,0.90
2019-01-27T06:10:52.020Z,1.00
2019-01-27T06:11:52.008Z,1.00
2019-01-27T06:12:52.019Z,1.20
2019-01-27T06:13:51.984Z,1.00
2019-01-27T06:14:51.974Z,1.10
2019-01-27T06:15:51.968Z,1.10
2019-01-27T06:16:51.963Z,1.10
2019-01-27T06:17:51.972Z,1.10
2019-01-27T06:18:51.961Z,0.90
2019-01-27T06:19:51.921Z,1.20
2019-01-27T06:20:51.964Z,1.20
2019-01-27T06:21:51.906Z,1.10
2019-01-27T06:22:51.885Z,1.20
2019-01-27T06:23:51.904Z,1.30
2019-01-27T06:24:51.893Z,1.40
2019-01-27T06:25:51.866Z,1.30
2019-01-27T06:26:51.847Z,1.30
2019-01-27T06:27:51.839Z,1.60
2019-01-27T06:28:51.842Z,1.70
2019-01-27T06:29:51.819Z,1.60
2019-01-27T06:30:51.807Z,1.90
2019-01-27T06:31:51.788Z,2.10
2019-01-27T06:32:51.788Z,2.30
2019-01-27T06:33:51.788Z,2.50
2019-01-27T06:34:51.761Z,2.90
2019-01-27T06:35:51.752Z,2.60
2019-01-27T06:36:51.752Z,2.50
2019-01-27T06:37:51.730Z,2.20
2019-01-27T06:38:51.740Z,2.00
2019-01-27T06:39:51.705Z,2.20
2019-01-27T06:40:51.698Z,1.90
2019-01-27T06:41:51.687Z,1.40
2019-01-27T06:42:51.678Z,1.30
2019-01-27T06:43:51.684Z,1.30
2019-01-27T06:44:51.652Z,1.20
2019-01-27T06:45:51.644Z,1.40
2019-01-27T06:46:51.627Z,1.20
2019-01-27T06:47:51.633Z,1.30
2019-01-27T06:48:51.611Z,1.20
2019-01-27T06:49:51.618Z,1.30
2019-01-27T06:50:51.592Z,1.30
2019-01-27T06:51:51.580Z,1.20
2019-01-27T06:52:51.566Z,1.30
2019-01-27T06:53:51.556Z,1.50
2019-01-27T06:54:51.572Z,1.60
2019-01-27T06:55:51.539Z,1.80
2019-01-27T06:56:51.540Z,1.70
2019-01-27T06:57:51.518Z,1.80
2019-01-27T06:58:51.499Z,2.10
2019-01-27T06:59:51.514Z,2.20
2019-01-27T07:00:51.484Z,2.00
2019-01-27T07:01:51.477Z,2.30
2019-01-27T07:02:51.466Z,1.80
2019-01-27T07:03:51.448Z,2.10
2019-01-27T07:04:51.459Z,2.10
2019-01-27T07:05:51.428Z,2.30
2019-01-27T07:06:51.415Z,2.10
2019-01-27T07:07:51.411Z,2.10
2019-01-27T07:08:51.399Z,1.80
2019-01-27T07:09:51.409Z,1.30
2019-01-27T07:10:51.396Z,1.60
2019-01-27T07:11:51.364Z,1.10
2019-01-27T07:12:51.353Z,1.30
2019-01-27T07:13:51.346Z,1.30
2019-01-27T07:14:51.343Z,1.10
2019-01-27T07:15:51.336Z,1.20
2019-01-27T07:16:51.314Z,1.10
2019-01-27T07:17:51.301Z,1.10
2019-01-27T07:18:51.289Z,1.00
2019-01-27T07:19:51.289Z,1.10
2019-01-27T07:20:51.309Z,1.00
2019-01-27T07:21:51.260Z,1.20
2019-01-27T07:22:51.269Z,1.30
2019-01-27T07:23:51.397Z,1.20
2019-01-27T07:24:51.229Z,1.20
2019-01-27T07:25:51.227Z,1.20
2019-01-27T07:26:51.224Z,1.30
2019-01-27T07:27:51.211Z,1.20
2019-01-27T07:28:51.186Z,1.10
2019-01-27T07:29:51.182Z,1.40
2019-01-27T07:30:51.161Z,1.00
2019-01-27T07:31:51.175Z,1.10
2019-01-27T07:32:51.144Z,1.10
2019-01-27T07:33:51.134Z,1.20
2019-01-27T07:34:51.125Z,1.00
2019-01-27T07:35:51.107Z,1.00
2019-01-27T07:36:51.128Z,0.90
2019-01-27T07:37:51.091Z,0.90
2019-01-27T07:38:51.075Z,0.90
2019-01-27T07:39:51.072Z,1.10
2019-01-27T07:40:51.057Z,1.00
2019-01-27T07:41:51.056Z,1.10
2019-01-27T07:42:51.060Z,1.10
2019-01-27T07:43:52.058Z,1.10
2019-01-27T07:44:51.012Z,1.00
2019-01-27T07:45:51.005Z,1.00
2019-01-27T07:46:51.011Z,1.00
2019-01-27T07:47:50.978Z,1.00
2019-01-27T07:48:50.989Z,1.00
2019-01-27T07:49:50.959Z,1.20
2019-01-27T07:50:50.947Z,1.20
2019-01-27T07:51:50.945Z,1.30
2019-01-27T07:52:50.953Z,1.40
2019-01-27T07:53:50.921Z,1.60
2019-01-27T07:54:50.913Z,1.80
2019-01-27T07:55:50.937Z,1.90
2019-01-27T07:56:50.892Z,1.80
2019-01-27T07:57:50.876Z,2.10
2019-01-27T07:58:50.890Z,1.90
2019-01-27T07:59:50.870Z,2.10
2019-01-27T08:00:50.850Z,1.70
2019-01-27T08:01:50.837Z,1.30
2019-01-27T08:02:50.819Z,1.70
2019-01-27T08:03:51.817Z,1.60
2019-01-27T08:04:50.846Z,1.40
2019-01-27T08:05:50.797Z,1.40
2019-01-27T08:06:50.785Z,1.50
2019-01-27T08:07:50.765Z,1.30
2019-01-27T08:08:51.354Z,1.40
2019-01-27T08:09:50.764Z,1.00
2019-01-27T08:10:50.768Z,1.00
2019-01-27T08:11:50.729Z,1.00
2019-01-27T08:12:50.723Z,1.00
2019-01-27T08:13:50.716Z,1.00
2019-01-27T08:14:50.715Z,1.00
2019-01-27T08:15:50.732Z,1.20
2019-01-27T08:16:50.683Z,1.10
2019-01-27T08:17:50.673Z,1.10
2019-01-27T08:18:50.670Z,1.20
2019-01-27T08:19:50.678Z,1.10
2019-01-27T08:20:50.672Z,1.10
2019-01-27T08:21:50.619Z,1.20
2019-01-27T08:22:50.611Z,1.10
2019-01-27T08:23:50.603Z,1.00
2019-01-27T08:24:50.602Z,1.20
2019-01-27T08:25:50.614Z,1.30
2019-01-27T08:26:50.613Z,1.40
2019-01-27T08:27:50.554Z,1.50
2019-01-27T08:28:50.542Z,1.60
2019-01-27T08:29:50.531Z,1.60
2019-01-27T08:30:50.524Z,1.90
2019-01-27T08:31:50.514Z,2.00
2019-01-27T08:32:50.526Z,2.00
2019-01-27T08:33:50.491Z,2.00
2019-01-27T08:34:50.487Z,2.10
2019-01-27T08:35:50.471Z,1.70
2019-01-27T08:36:50.487Z,1.80
2019-01-27T08:37:50.481Z,1.80
2019-01-27T08:38:50.440Z,1.80
2019-01-27T08:39:50.430Z,1.80
2019-01-27T08:40:50.416Z,1.90
2019-01-27T08:41:50.404Z,1.80
2019-01-27T08:42:50.418Z,1.70
2019-01-27T08:43:50.399Z,1.60
2019-01-27T08:44:50.379Z,1.70
2019-01-27T08:45:50.371Z,1.70
2019-01-27T08:46:50.388Z,1.90
2019-01-27T08:47:50.395Z,2.00
2019-01-27T08:48:50.346Z,1.80
2019-01-27T08:49:50.325Z,2.00
2019-01-27T08:50:50.311Z,2.10
2019-01-27T08:51:50.302Z,2.00
2019-01-27T08:52:50.286Z,2.00
2019-01-27T08:53:50.298Z,2.30
2019-01-27T08:54:50.266Z,2.20
2019-01-27T08:55:50.264Z,2.20
2019-01-27T08:56:50.282Z,2.10
2019-01-27T08:57:50.243Z,2.10
2019-01-27T08:58:50.233Z,2.60
2019-01-27T08:59:50.214Z,2.70
2019-01-27T09:00:50.204Z,2.50
2019-01-27T09:01:50.191Z,2.20
2019-01-27T09:02:50.200Z,2.20
2019-01-27T09:03:50.177Z,2.50
2019-01-27T09:04:50.196Z,2.20
2019-01-27T09:05:50.156Z,2.30
2019-01-27T09:06:50.140Z,2.30
2019-01-27T09:07:50.140Z,2.10
2019-01-27T09:08:50.154Z,2.60
2019-01-27T09:09:50.132Z,2.10
2019-01-27T09:10:50.101Z,2.30
2019-01-27T09:11:50.084Z,2.30
2019-01-27T09:12:50.093Z,2.40
2019-01-27T09:13:50.063Z,2.00
2019-01-27T09:14:50.054Z,1.80
2019-01-27T09:15:50.067Z,1.90
2019-01-27T09:16:50.039Z,2.40
2019-01-27T09:17:50.024Z,2.00
2019-01-27T09:18:50.013Z,1.70
2019-01-27T09:19:49.999Z,1.70
2019-01-27T09:20:50.002Z,1.60
2019-01-27T09:21:50.010Z,1.40
2019-01-27T09:22:49.967Z,1.70
2019-01-27T09:23:49.978Z,1.20
2019-01-27T09:24:49.950Z,1.20
2019-01-27T09:25:49.934Z,1.30
2019-01-27T09:26:49.931Z,1.40
2019-01-27T09:27:49.935Z,1.40
2019-01-27T09:28:49.945Z,1.30
2019-01-27T09:29:49.922Z,1.40
2019-01-27T09:30:49.883Z,1.30
2019-01-27T09:31:49.873Z,1.20
2019-01-27T09:32:49.857Z,1.20
2019-01-27T09:33:49.848Z,1.30
2019-01-27T09:34:49.839Z,1.30
2019-01-27T09:35:49.881Z,1.30
2019-01-27T09:36:49.824Z,1.10
2019-01-27T09:37:49.821Z,1.10
2019-01-27T09:38:49.799Z,1.20
2019-01-27T09:39:49.787Z,1.30
2019-01-27T09:40:49.778Z,1.30
2019-01-27T09:41:49.786Z,1.00
2019-01-27T09:42:49.771Z,1.10
2019-01-27T09:43:49.755Z,1.20
2019-01-27T09:44:49.732Z,1.20
2019-01-27T09:45:57.801Z,1.10
2019-01-27T09:46:50.726Z,1.30
2019-01-27T09:47:49.729Z,1.40
2019-01-27T09:48:49.698Z,1.10
2019-01-27T09:49:49.685Z,1.10
2019-01-27T09:50:49.710Z,1.20
2019-01-27T09:51:49.672Z,1.30
2019-01-27T09:52:49.667Z,1.10
2019-01-27T09:53:49.681Z,1.00
2019-01-27T09:54:49.624Z,1.10
2019-01-27T09:55:49.611Z,1.10
2019-01-27T09:56:49.598Z,1.10
2019-01-27T09:57:49.587Z,1.30
2019-01-27T09:58:49.597Z,1.20
2019-01-27T09:59:49.574Z,1.20
2019-01-27T10:00:49.565Z,1.10
2019-01-27T10:01:49.586Z,1.20
2019-01-27T10:02:49.556Z,1.30
2019-01-27T10:03:49.552Z,1.30
2019-01-27T10:04:49.530Z,1.20
2019-01-27T10:05:49.502Z,1.40
2019-01-27T10:06:49.494Z,1.10
2019-01-27T10:07:49.484Z,1.40
2019-01-27T10:08:49.478Z,1.20
2019-01-27T10:09:49.492Z,1.50
2019-01-27T10:10:49.456Z,1.30
2019-01-27T10:11:49.440Z,1.50
2019-01-27T10:12:49.432Z,1.30
2019-01-27T10:13:49.439Z,1.20
2019-01-27T10:14:49.426Z,1.40
2019-01-27T10:15:49.396Z,1.50
2019-01-27T10:16:49.384Z,1.20
2019-01-27T10:17:49.385Z,1.20
2019-01-27T10:18:49.364Z,1.30
2019-01-27T10:19:49.372Z,1.50
2019-01-27T10:20:49.383Z,1.50
2019-01-27T10:21:49.336Z,1.30
2019-01-27T10:22:49.321Z,1.30
2019-01-27T10:23:49.312Z,1.20
2019-01-27T10:24:49.314Z,1.30
2019-01-27T10:25:49.293Z,1.20
2019-01-27T10:26:49.330Z,1.50
2019-01-27T10:27:49.266Z,1.20
2019-01-27T10:28:49.266Z,1.50
2019-01-27T10:29:49.242Z,1.40
2019-01-27T10:30:49.265Z,1.50
2019-01-27T10:31:49.230Z,1.30
2019-01-27T10:32:49.258Z,1.20
2019-01-27T10:33:49.205Z,1.40
2019-01-27T10:34:49.196Z,1.40
2019-01-27T10:35:49.179Z,1.20
2019-01-27T10:36:49.193Z,1.30
2019-01-27T10:37:49.159Z,1.30
2019-01-27T10:38:49.198Z,1.60
2019-01-27T10:39:49.138Z,1.40
2019-01-27T10:40:49.162Z,1.20
2019-01-27T10:41:49.112Z,1.30
2019-01-27T10:42:49.103Z,1.20
2019-01-27T10:43:49.109Z,1.30
2019-01-27T10:44:49.086Z,1.30
2019-01-27T10:45:49.079Z,1.40
2019-01-27T10:46:49.087Z,1.10
2019-01-27T10:47:49.055Z,1.50
2019-01-27T10:48:49.040Z,1.30
2019-01-27T10:49:49.041Z,1.50
2019-01-27T10:50:49.020Z,1.30
2019-01-27T10:51:49.010Z,1.30
2019-01-27T10:52:49.030Z,1.50
2019-01-27T10:53:49.015Z,1.30
2019-01-27T10:54:48.978Z,1.70
2019-01-27T10:55:48.967Z,1.30
2019-01-27T10:56:48.950Z,1.10
2019-01-27T10:57:48.971Z,1.30
2019-01-27T10:58:48.943Z,1.80
2019-01-27T10:59:48.921Z,1.30
2019-01-27T11:00:48.931Z,1.40
2019-01-27T11:01:48.904Z,1.20
2019-01-27T11:02:48.914Z,1.10
2019-01-27T11:03:48.884Z,1.30
2019-01-27T11:04:48.874Z,1.30
2019-01-27T11:05:48.866Z,1.20
2019-01-27T11:06:48.860Z,1.20
2019-01-27T11:07:48.834Z,1.60
2019-01-27T11:08:48.851Z,1.50
2019-01-27T11:09:48.822Z,1.60
2019-01-27T11:10:48.806Z,1.80
2019-01-27T11:11:48.796Z,1.50
2019-01-27T11:12:48.804Z,1.80
2019-01-27T11:13:48.773Z,1.70
2019-01-27T11:14:48.807Z,1.80
2019-01-27T11:15:48.762Z,1.60
2019-01-27T11:16:48.746Z,1.70
2019-01-27T11:17:48.730Z,1.70
2019-01-27T11:18:48.725Z,1.70
2019-01-27T11:19:48.723Z,2.10
2019-01-27T11:20:48.700Z,2.20
2019-01-27T11:21:48.688Z,2.10
2019-01-27T11:22:48.673Z,1.70
2019-01-27T11:23:48.664Z,1.90
2019-01-27T11:24:48.676Z,1.80
2019-01-27T11:25:48.646Z,2.10
2019-01-27T11:26:48.646Z,2.20
2019-01-27T11:27:48.645Z,2.10
2019-01-27T11:28:48.611Z,1.60
2019-01-27T11:29:48.631Z,1.70
2019-01-27T11:30:48.590Z,1.70
2019-01-27T11:31:48.579Z,1.50
2019-01-27T11:32:48.565Z,1.90
2019-01-27T11:33:48.553Z,2.00
2019-01-27T11:34:48.545Z,1.70
2019-01-27T11:35:48.596Z,1.70
2019-01-27T11:36:48.526Z,1.30
2019-01-27T11:37:48.516Z,1.60
2019-01-27T11:38:48.502Z,1.60
2019-01-27T11:39:48.492Z,1.40
2019-01-27T11:40:48.478Z,1.70
2019-01-27T11:41:48.482Z,1.70
2019-01-27T11:42:48.459Z,1.60
2019-01-27T11:43:48.449Z,1.50
2019-01-27T11:44:48.586Z,1.60
2019-01-27T11:45:48.455Z,1.70
2019-01-27T11:46:48.413Z,1.80
2019-01-27T11:47:48.409Z,1.50
2019-01-27T11:48:48.397Z,1.60
2019-01-27T11:49:48.386Z,1.20
2019-01-27T11:50:48.396Z,1.60
2019-01-27T11:51:48.391Z,1.50
2019-01-27T11:52:48.347Z,1.60
2019-01-27T11:53:48.336Z,1.60
2019-01-27T11:54:48.328Z,1.70
2019-01-27T11:55:48.359Z,1.70
2019-01-27T11:56:48.311Z,1.40
2019-01-27T11:57:48.375Z,1.40
2019-01-27T11:58:48.294Z,1.70
2019-01-27T11:59:48.275Z,1.70
2019-01-27T12:00:48.277Z,1.80
2019-01-27T12:01:48.257Z,1.90
2019-01-27T12:02:48.264Z,2.10
2019-01-27T12:03:48.231Z,1.70
2019-01-27T12:04:48.225Z,2.20
2019-01-27T12:05:48.210Z,2.20
2019-01-27T12:06:48.244Z,2.10
2019-01-27T12:07:48.216Z,2.10
2019-01-27T12:08:48.189Z,2.40
2019-01-27T12:09:48.175Z,2.60
2019-01-27T12:10:48.167Z,2.40
2019-01-27T12:11:48.154Z,2.40
2019-01-27T12:12:48.139Z,2.60
2019-01-27T12:13:48.141Z,2.60
2019-01-27T12:14:48.114Z,2.50
2019-01-27T12:15:48.109Z,2.50
2019-01-27T12:16:48.099Z,1.90
2019-01-27T12:17:48.117Z,2.40
2019-01-27T12:18:48.073Z,2.00
2019-01-27T12:19:48.062Z,2.20
2019-01-27T12:20:48.055Z,2.30
2019-01-27T12:21:48.043Z,2.40
2019-01-27T12:22:48.067Z,2.20
2019-01-27T12:23:48.018Z,2.20
2019-01-27T12:24:48.005Z,2.60
2019-01-27T12:25:48.015Z,2.70
2019-01-27T12:26:48.015Z,2.30
2019-01-27T12:27:47.976Z,2.40
2019-01-27T12:28:47.962Z,2.60
2019-01-27T12:29:47.951Z,2.40
2019-01-27T12:30:47.939Z,2.30
2019-01-27T12:31:47.936Z,2.30
2019-01-27T12:32:47.939Z,2.80
2019-01-27T12:33:47.907Z,1.90
2019-01-27T12:34:47.896Z,2.20
2019-01-27T12:35:47.896Z,2.50
2019-01-27T12:36:47.895Z,2.30
2019-01-27T12:37:47.888Z,2.20
2019-01-27T12:38:47.897Z,2.40
2019-01-27T12:39:47.845Z,2.10
2019-01-27T12:40:47.877Z,1.90
2019-01-27T12:41:47.823Z,2.40
2019-01-27T12:42:47.812Z,2.50
2019-01-27T12:43:47.809Z,2.20
2019-01-27T12:44:47.823Z,2.00
2019-01-27T12:45:47.783Z,2.00
2019-01-27T12:46:47.775Z,2.30
2019-01-27T12:47:47.795Z,2.10
2019-01-27T12:48:47.817Z,2.40
2019-01-27T12:49:47.798Z,2.60
2019-01-27T12:50:47.730Z,2.60
2019-01-27T12:51:47.715Z,2.40
2019-01-27T12:52:47.707Z,2.60
2019-01-27T12:53:47.697Z,2.40
2019-01-27T12:54:47.701Z,2.20
2019-01-27T12:55:47.679Z,2.20
2019-01-27T12:56:47.666Z,2.70
2019-01-27T12:57:47.655Z,2.40
2019-01-27T12:58:47.668Z,2.40
2019-01-27T12:59:47.673Z,2.60
2019-01-27T13:00:47.621Z,2.50
2019-01-27T13:01:47.618Z,2.00
2019-01-27T13:02:47.596Z,1.90
2019-01-27T13:03:47.590Z,1.90
2019-01-27T13:04:47.595Z,1.90
2019-01-27T13:05:47.584Z,1.40
2019-01-27T13:06:47.553Z,1.60
2019-01-27T13:07:47.551Z,1.80
2019-01-27T13:08:47.534Z,1.90
2019-01-27T13:09:47.573Z,2.00
2019-01-27T13:10:47.522Z,1.90
2019-01-27T13:11:47.499Z,1.60
2019-01-27T13:12:47.505Z,1.80
2019-01-27T13:13:47.481Z,1.50
2019-01-27T13:14:47.468Z,1.50
2019-01-27T13:15:47.484Z,1.50
2019-01-27T13:16:47.449Z,1.40
2019-01-27T13:17:47.442Z,1.60
2019-01-27T13:18:47.459Z,1.40